Time;durP1;ratioP1;P1;durP2;ratioP2;P2;SDS_P1;SDS_P2;PMS_P1;PMS_P2;Temp;Humidity;BMP_temperature;BMP_pressure;BME280_temperature;BME280_humidity;BME280_pressure;Samples;Min_cycle;Max_cycle;Signal;HPM_P1;HPM_P2
2023/06/04 00:00:10;;;;;;;1.20;0.80;;;;;;;17.36;39.40;97291.16;4772862;29;20265;-77
2023/06/04 00:02:35;;;;;;;1.38;0.82;;;;;;;17.11;39.78;97276.47;4758208;29;20384;-79
2023/06/04 00:05:01;;;;;;;1.90;0.90;;;;;;;17.21;39.27;97275.56;4759531;29;20292;-79
2023/06/04 00:07:26;;;;;;;2.65;1.20;;;;;;;17.08;39.67;97282.31;4757737;29;20531;-78
2023/06/04 00:09:53;;;;;;;1.92;0.88;;;;;;;16.99;39.49;97289.28;4742149;29;20215;-78
2023/06/04 00:12:18;;;;;;;2.20;1.17;;;;;;;17.18;39.63;97274.28;4776664;29;20284;-77
2023/06/04 00:14:44;;;;;;;2.13;0.98;;;;;;;16.90;39.90;97281.22;4755713;29;20265;-79
2023/06/04 00:17:10;;;;;;;3.50;1.42;;;;;;;16.94;39.78;97287.47;4759500;29;20185;-78
2023/06/04 00:19:37;;;;;;;3.67;1.00;;;;;;;16.90;39.75;97277.84;4760195;29;20220;-78
2023/06/04 00:22:03;;;;;;;2.78;1.00;;;;;;;16.92;39.79;97288.84;4763555;29;20211;-78
2023/06/04 00:24:28;;;;;;;3.67;1.10;;;;;;;16.96;39.91;97289.84;4792744;29;20255;-79
2023/06/04 00:26:54;;;;;;;2.22;1.23;;;;;;;16.98;38.98;97283.25;4760807;29;20216;-79
2023/06/04 00:29:19;;;;;;;1.60;0.90;;;;;;;16.78;39.90;97270.31;4745483;29;20399;-79
2023/06/04 00:31:45;;;;;;;1.85;1.10;;;;;;;16.80;39.29;97273.44;4754894;29;20391;-79
2023/06/04 00:34:10;;;;;;;1.48;1.10;;;;;;;16.88;39.80;97283.38;4777285;29;20347;-79
2023/06/04 00:36:36;;;;;;;1.92;1.25;;;;;;;16.98;39.60;97275.34;4764293;29;20545;-77
2023/06/04 00:39:01;;;;;;;2.30;1.25;;;;;;;16.93;40.04;97274.63;4759542;29;20571;-80
2023/06/04 00:41:27;;;;;;;1.85;1.23;;;;;;;16.99;39.64;97282.16;4745005;29;20196;-77
2023/06/04 00:43:55;;;;;;;1.52;1.00;;;;;;;16.88;39.54;97278.13;4746466;29;20403;-79
2023/06/04 00:46:28;;;;;;;2.95;1.00;;;;;;;16.74;39.19;97278.00;4761404;29;20504;-77
2023/06/04 00:48:54;;;;;;;3.60;0.95;;;;;;;16.88;39.42;97275.47;4777294;29;20257;-78
2023/06/04 00:51:20;;;;;;;1.70;1.10;;;;;;;16.72;39.20;97279.31;4775739;29;20296;-78
2023/06/04 00:53:47;;;;;;;2.45;0.95;;;;;;;16.64;40.28;97284.16;4760324;29;20402;-78
2023/06/04 00:56:12;;;;;;;2.47;1.15;;;;;;;16.64;40.13;97278.88;4777011;29;20204;-78
2023/06/04 00:58:39;;;;;;;2.33;1.00;;;;;;;16.60;39.84;97277.09;4759099;29;20366;-78
2023/06/04 01:01:08;;;;;;;1.88;0.90;;;;;;;16.73;39.43;97276.41;4760055;29;20328;-77
2023/06/04 01:03:34;;;;;;;1.45;0.80;;;;;;;16.65;39.81;97282.28;4774282;29;20177;-78
2023/06/04 01:06:06;;;;;;;2.75;1.00;;;;;;;16.58;40.21;97284.47;4774545;29;20302;-79
2023/06/04 01:08:31;;;;;;;2.42;0.80;;;;;;;16.52;40.02;97275.88;4768956;29;20192;-79
2023/06/04 01:10:57;;;;;;;2.05;1.08;;;;;;;16.45;40.02;97276.19;4761533;29;20434;-78
2023/06/04 01:13:24;;;;;;;2.50;0.93;;;;;;;16.33;40.64;97272.38;4748781;29;20180;-78
2023/06/04 01:15:49;;;;;;;2.15;0.95;;;;;;;16.47;39.89;97278.56;4746684;29;20189;-78
2023/06/04 01:18:27;;;;;;;3.30;1.20;;;;;;;16.39;39.86;97279.16;4776568;29;20195;-78
2023/06/04 01:21:02;;;;;;;2.47;0.90;;;;;;;16.23;40.27;97271.44;4776274;29;20256;-79
2023/06/04 01:23:35;;;;;;;2.85;0.90;;;;;;;16.29;40.03;97272.16;4770120;29;20212;-80
2023/06/04 01:26:03;;;;;;;1.90;1.17;;;;;;;16.24;40.52;97285.34;4774520;29;20409;-78
2023/06/04 01:28:29;;;;;;;1.73;0.70;;;;;;;16.21;40.59;97278.81;4749600;29;20324;-78
2023/06/04 01:30:56;;;;;;;1.50;1.05;;;;;;;16.18;40.69;97286.47;4772127;29;20223;-79
2023/06/04 01:33:22;;;;;;;2.50;1.40;;;;;;;16.15;40.92;97279.91;4775305;29;20498;-78
2023/06/04 01:35:48;;;;;;;1.65;0.80;;;;;;;16.13;40.96;97284.66;4776328;29;20538;-78
2023/06/04 01:38:14;;;;;;;1.23;0.88;;;;;;;16.05;40.38;97277.38;4775907;29;20173;-79
2023/06/04 01:40:42;;;;;;;3.58;0.90;;;;;;;15.99;40.37;97278.47;4774738;29;20305;-78
2023/06/04 01:43:08;;;;;;;3.58;1.13;;;;;;;16.08;40.92;97276.84;4775952;29;20211;-78
2023/06/04 01:45:33;;;;;;;3.08;1.23;;;;;;;15.92;40.86;97270.94;4758349;29;20292;-78
2023/06/04 01:48:01;;;;;;;1.75;0.82;;;;;;;16.15;39.66;97282.53;4758281;29;20137;-78
2023/06/04 01:50:27;;;;;;;3.13;1.00;;;;;;;16.09;40.37;97278.38;4771104;29;20165;-80
2023/06/04 01:52:53;;;;;;;1.55;1.10;;;;;;;16.12;40.12;97269.19;4756185;29;20479;-78
2023/06/04 01:55:19;;;;;;;2.88;0.98;;;;;;;16.07;40.27;97276.06;4773318;29;20097;-78
2023/06/04 01:57:45;;;;;;;2.67;0.80;;;;;;;16.12;40.20;97277.84;4744711;29;20336;-79
2023/06/04 02:00:11;;;;;;;2.67;0.70;;;;;;;15.91;40.57;97280.66;4768986;29;20375;-79
2023/06/04 02:02:37;;;;;;;1.70;0.80;;;;;;;16.04;40.96;97278.44;4743635;29;20257;-79
2023/06/04 02:05:07;;;;;;;2.35;0.85;;;;;;;15.82;40.28;97274.44;4743451;29;20261;-78
2023/06/04 02:07:38;;;;;;;3.70;1.00;;;;;;;15.77;40.95;97271.09;4762097;29;20339;-80
2023/06/04 02:10:11;;;;;;;3.35;1.00;;;;;;;15.84;40.52;97274.16;4762531;29;20398;-79
2023/06/04 02:12:39;;;;;;;1.83;1.00;;;;;;;15.94;40.50;97263.56;4755780;29;20355;-78
2023/06/04 02:15:05;;;;;;;2.88;0.85;;;;;;;15.96;39.97;97268.56;4773290;29;20401;-77
2023/06/04 02:17:32;;;;;;;2.55;0.90;;;;;;;15.96;40.10;97263.31;4776757;29;20213;-79
2023/06/04 02:19:58;;;;;;;1.88;1.05;;;;;;;16.00;39.86;97269.56;4746752;29;20154;-80
2023/06/04 02:22:24;;;;;;;2.05;0.90;;;;;;;15.99;39.77;97273.22;4757709;29;20174;-79
2023/06/04 02:24:50;;;;;;;1.58;0.90;;;;;;;15.77;40.72;97274.47;4758512;29;20389;-79
2023/06/04 02:27:15;;;;;;;1.30;0.70;;;;;;;15.93;40.31;97267.25;4771517;29;20298;-78
2023/06/04 02:29:41;;;;;;;1.50;1.08;;;;;;;15.84;39.96;97268.91;4771464;29;20337;-78
2023/06/04 02:32:07;;;;;;;1.60;1.10;;;;;;;15.96;40.38;97274.56;4756518;29;20292;-78
2023/06/04 02:34:33;;;;;;;2.08;1.00;;;;;;;15.93;39.99;97279.59;4775966;29;20188;-78
2023/06/04 02:36:59;;;;;;;2.03;1.10;;;;;;;15.85;40.02;97270.47;4758417;29;20209;-78
2023/06/04 02:39:25;;;;;;;1.48;0.80;;;;;;;15.77;40.62;97271.09;4773523;29;20205;-78
2023/06/04 02:41:50;;;;;;;2.65;1.25;;;;;;;15.67;40.29;97269.28;4745040;29;20207;-78
2023/06/04 02:44:16;;;;;;;3.00;0.80;;;;;;;15.72;40.97;97269.25;4757097;29;20609;-78
2023/06/04 02:46:41;;;;;;;2.08;0.85;;;;;;;15.73;40.68;97266.34;4758279;29;20212;-78
2023/06/04 02:49:07;;;;;;;3.58;0.90;;;;;;;15.71;41.18;97272.91;4774487;29;20216;-79
2023/06/04 02:51:32;;;;;;;4.53;0.90;;;;;;;15.69;40.00;97275.03;4760653;29;20219;-79
2023/06/04 02:53:58;;;;;;;1.95;1.00;;;;;;;15.75;39.94;97263.47;4746956;29;20526;-77
2023/06/04 02:56:25;;;;;;;1.85;0.95;;;;;;;15.70;40.01;97276.63;4764384;29;20398;-79
2023/06/04 02:58:55;;;;;;;1.40;0.80;;;;;;;15.72;40.03;97277.13;4744572;29;20549;-78
2023/06/04 03:01:26;;;;;;;1.50;0.68;;;;;;;15.80;40.70;97276.56;4768189;29;20261;-78
2023/06/04 03:03:53;;;;;;;1.45;0.85;;;;;;;15.75;40.79;97279.22;4777586;29;20649;-78
2023/06/04 03:06:22;;;;;;;1.05;0.93;;;;;;;15.70;39.52;97268.75;4757819;29;20216;-78
2023/06/04 03:08:49;;;;;;;1.88;1.05;;;;;;;15.79;39.98;97284.72;4782767;29;20483;-77
2023/06/04 03:11:15;;;;;;;2.03;0.75;;;;;;;15.81;40.49;97285.22;4754094;29;20215;-77
2023/06/04 03:13:40;;;;;;;3.25;1.27;;;;;;;15.73;39.83;97287.34;4743019;29;20415;-78
2023/06/04 03:16:12;;;;;;;1.65;0.82;;;;;;;15.69;40.66;97275.81;4754703;29;20327;-77
2023/06/04 03:18:38;;;;;;;1.58;0.98;;;;;;;15.64;40.39;97277.69;4754465;29;20108;-78
2023/06/04 03:21:07;;;;;;;2.00;0.98;;;;;;;15.67;40.12;97279.78;4769839;29;20189;-78
2023/06/04 03:23:33;;;;;;;2.08;0.88;;;;;;;15.55;40.41;97275.66;4772423;29;20199;-78
2023/06/04 03:26:01;;;;;;;1.30;0.77;;;;;;;15.48;41.15;97275.19;4754817;29;20200;-77
2023/06/04 03:28:26;;;;;;;1.98;0.90;;;;;;;15.51;40.56;97279.13;4774395;29;20335;-77
2023/06/04 03:30:52;;;;;;;2.13;0.73;;;;;;;15.48;40.78;97283.06;4742199;29;20197;-78
2023/06/04 03:33:17;;;;;;;1.45;0.70;;;;;;;15.51;40.32;97287.00;4745393;29;20195;-78
2023/06/04 03:35:43;;;;;;;1.73;0.70;;;;;;;15.54;40.68;97281.16;4754713;29;20664;-78
2023/06/04 03:38:08;;;;;;;1.27;0.70;;;;;;;15.60;39.94;97281.94;4773663;29;20272;-77
2023/06/04 03:40:34;;;;;;;1.50;0.80;;;;;;;15.28;41.19;97281.34;4760683;29;20241;-78
2023/06/04 03:43:00;;;;;;;2.65;0.93;;;;;;;14.94;40.93;97289.13;4774780;29;20250;-78
2023/06/04 03:45:26;;;;;;;1.00;0.70;;;;;;;15.27;41.89;97289.50;4743888;29;20513;-78
2023/06/04 03:47:51;;;;;;;2.15;0.80;;;;;;;15.36;40.50;97285.25;4777949;29;20199;-78
2023/06/04 03:50:18;;;;;;;1.70;0.90;;;;;;;15.49;40.98;97284.63;4763549;29;20341;-77
2023/06/04 03:52:44;;;;;;;1.65;0.77;;;;;;;15.41;41.42;97282.59;4744426;29;20376;-78
2023/06/04 03:55:11;;;;;;;4.55;1.00;;;;;;;15.49;40.54;97287.25;4778360;29;20590;-77
2023/06/04 03:57:38;;;;;;;1.13;0.70;;;;;;;15.50;40.01;97283.56;4763014;29;20207;-77
2023/06/04 04:00:05;;;;;;;1.30;0.70;;;;;;;15.55;40.27;97288.78;4762904;29;20198;-77
2023/06/04 04:02:31;;;;;;;2.72;1.17;;;;;;;15.59;40.23;97288.22;4761430;29;20597;-77
2023/06/04 04:04:57;;;;;;;1.25;0.65;;;;;;;15.61;40.91;97284.28;4773612;29;20205;-78
2023/06/04 04:07:23;;;;;;;2.75;0.80;;;;;;;15.66;40.96;97284.25;4747021;29;20189;-78
2023/06/04 04:09:48;;;;;;;2.20;0.88;;;;;;;15.63;41.14;97286.66;4777911;29;20313;-77
2023/06/04 04:12:14;;;;;;;1.70;0.77;;;;;;;15.63;40.97;97279.53;4775360;29;20530;-77
2023/06/04 04:14:40;;;;;;;2.72;0.90;;;;;;;15.63;40.03;97284.78;4763040;29;20174;-77
2023/06/04 04:17:06;;;;;;;3.47;0.75;;;;;;;15.52;41.17;97286.72;4747525;29;20226;-77
2023/06/04 04:19:31;;;;;;;2.42;0.90;;;;;;;15.57;41.08;97285.09;4756641;29;20196;-79
2023/06/04 04:21:56;;;;;;;2.55;0.80;;;;;;;15.55;40.90;97290.63;4774936;29;20285;-77
2023/06/04 04:24:26;;;;;;;3.83;0.80;;;;;;;15.69;41.40;97291.56;4778321;29;20372;-78
2023/06/04 04:26:53;;;;;;;3.55;0.90;;;;;;;15.65;40.49;97292.41;4790159;29;20357;-77
2023/06/04 04:29:22;;;;;;;1.48;1.00;;;;;;;15.66;40.90;97292.13;4748018;29;20219;-77
2023/06/04 04:31:49;;;;;;;2.22;0.70;;;;;;;15.74;40.58;97299.41;4758660;29;20189;-77
2023/06/04 04:34:15;;;;;;;3.45;1.25;;;;;;;15.71;40.60;97296.53;4773513;29;20264;-77
2023/06/04 04:36:40;;;;;;;3.17;1.40;;;;;;;15.70;41.22;97293.13;4777778;29;20037;-77
2023/06/04 04:39:06;;;;;;;1.42;0.80;;;;;;;15.72;40.42;97298.13;4746695;29;20294;-79
2023/06/04 04:41:32;;;;;;;2.42;0.90;;;;;;;15.63;41.16;97297.91;4761315;29;20289;-79
2023/06/04 04:44:07;;;;;;;1.60;1.10;;;;;;;15.73;39.70;97292.59;4744900;29;20219;-78
2023/06/04 04:46:32;;;;;;;1.63;0.60;;;;;;;15.79;40.02;97297.84;4757364;29;20355;-80
2023/06/04 04:48:59;;;;;;;2.63;0.88;;;;;;;15.90;40.55;97305.34;4747790;29;20529;-79
2023/06/04 04:51:24;;;;;;;2.95;0.80;;;;;;;15.96;39.65;97297.44;4762296;29;20165;-79
2023/06/04 04:53:50;;;;;;;1.48;0.63;;;;;;;15.78;39.85;97294.44;4778908;29;20384;-78
2023/06/04 04:56:16;;;;;;;1.90;0.77;;;;;;;16.00;39.83;97291.34;4776165;29;20292;-79
2023/06/04 04:58:42;;;;;;;1.70;0.85;;;;;;;16.10;39.90;97296.50;4776535;29;20203;-78
2023/06/04 05:01:07;;;;;;;4.95;1.52;;;;;;;15.96;39.44;97306.09;4761054;29;20215;-78
2023/06/04 05:03:32;;;;;;;2.30;0.80;;;;;;;16.14;39.78;97298.59;4746172;29;20104;-78
2023/06/04 05:05:58;;;;;;;2.70;0.80;;;;;;;16.08;39.16;97303.88;4776366;29;20263;-78
2023/06/04 05:08:23;;;;;;;0.90;0.70;;;;;;;16.35;39.44;97310.47;4745089;29;20174;-77
2023/06/04 05:10:50;;;;;;;1.85;0.82;;;;;;;16.32;39.63;97305.00;4776411;29;20237;-79
2023/06/04 05:13:16;;;;;;;2.25;0.70;;;;;;;16.34;38.63;97303.63;4744584;29;20200;-80
2023/06/04 05:15:42;;;;;;;1.50;0.60;;;;;;;16.28;39.02;97308.16;4775375;29;20398;-78
2023/06/04 05:18:08;;;;;;;2.55;0.70;;;;;;;16.43;39.41;97304.63;4763978;29;20201;-79
2023/06/04 05:20:37;;;;;;;1.25;0.82;;;;;;;16.59;39.45;97321.00;4746303;29;20511;-78
2023/06/04 05:23:03;;;;;;;2.15;0.93;;;;;;;16.47;38.71;97320.59;4761498;29;20407;-78
2023/06/04 05:25:29;;;;;;;1.00;0.60;;;;;;;16.53;37.74;97327.38;4760729;29;20382;-78
2023/06/04 05:27:58;;;;;;;3.55;1.00;;;;;;;16.72;38.54;97324.00;4740969;29;20554;-78
2023/06/04 05:30:24;;;;;;;2.13;1.27;;;;;;;16.83;38.23;97328.09;4772614;29;20270;-77
2023/06/04 05:32:50;;;;;;;1.38;0.80;;;;;;;16.90;38.07;97325.94;4746457;29;20321;-78
2023/06/04 05:35:16;;;;;;;1.30;0.65;;;;;;;16.79;37.55;97316.56;4773837;29;20298;-77
2023/06/04 05:37:45;;;;;;;2.63;0.80;;;;;;;16.63;38.31;97327.25;4759263;29;20419;-79
2023/06/04 05:40:11;;;;;;;2.75;1.00;;;;;;;16.78;37.90;97323.69;4760370;29;20715;-80
2023/06/04 05:42:37;;;;;;;2.55;1.27;;;;;;;16.72;38.05;97329.28;4775742;29;20232;-78
2023/06/04 05:45:02;;;;;;;1.85;0.70;;;;;;;16.61;38.82;97336.50;4751096;29;20262;-78
2023/06/04 05:47:31;;;;;;;2.70;0.82;;;;;;;16.95;38.83;97330.38;4791065;29;20189;-78
2023/06/04 05:49:57;;;;;;;1.85;0.70;;;;;;;16.97;38.26;97318.50;4757743;29;20597;-79
2023/06/04 05:52:23;;;;;;;2.70;0.95;;;;;;;17.06;37.86;97331.03;4767985;29;20200;-77
2023/06/04 05:54:48;;;;;;;1.02;0.57;;;;;;;17.03;37.62;97330.53;4762877;29;20479;-79
2023/06/04 05:57:14;;;;;;;1.48;0.82;;;;;;;17.26;37.90;97338.66;4757684;29;20215;-79
2023/06/04 05:59:40;;;;;;;1.85;0.85;;;;;;;17.36;37.83;97338.53;4789732;29;20544;-79
2023/06/04 06:02:06;;;;;;;1.63;0.90;;;;;;;17.51;37.54;97342.00;4776213;29;20234;-78
2023/06/04 06:04:31;;;;;;;2.63;0.80;;;;;;;17.61;37.79;97336.59;4774470;29;20339;-78
2023/06/04 06:06:57;;;;;;;2.67;0.80;;;;;;;17.72;37.07;97337.25;4761192;29;20280;-78
2023/06/04 06:09:23;;;;;;;2.22;1.38;;;;;;;17.81;36.97;97338.16;4756205;29;20578;-77
2023/06/04 06:11:48;;;;;;;1.55;0.68;;;;;;;17.75;37.26;97342.72;4761512;29;20232;-78
2023/06/04 06:14:14;;;;;;;2.67;1.40;;;;;;;17.95;36.60;97346.91;4775578;29;20199;-78
2023/06/04 06:16:40;;;;;;;1.77;0.95;;;;;;;18.07;37.05;97346.44;4760848;29;20332;-79
2023/06/04 06:19:06;;;;;;;1.42;0.90;;;;;;;18.47;36.69;97346.84;4776454;29;20595;-78
2023/06/04 06:21:31;;;;;;;1.52;0.75;;;;;;;18.57;35.95;97350.34;4776536;29;20475;-78
2023/06/04 06:23:57;;;;;;;1.48;0.77;;;;;;;18.79;35.40;97347.06;4773391;29;20211;-78
2023/06/04 06:26:24;;;;;;;1.92;0.77;;;;;;;19.14;35.25;97342.16;4760514;29;20364;-77
2023/06/04 06:28:49;;;;;;;1.95;0.90;;;;;;;19.27;35.45;97351.91;4764179;29;20223;-79
2023/06/04 06:31:15;;;;;;;1.75;0.85;;;;;;;19.01;35.22;97352.44;4757258;29;20248;-78
2023/06/04 06:33:40;;;;;;;1.50;0.80;;;;;;;19.42;34.25;97358.75;4775067;29;20299;-78
2023/06/04 06:36:07;;;;;;;4.10;1.23;;;;;;;19.69;35.26;97362.38;4759709;29;20666;-78
2023/06/04 06:38:33;;;;;;;2.53;1.08;;;;;;;19.73;34.67;97366.00;4775618;29;20414;-79
2023/06/04 06:40:58;;;;;;;1.42;0.80;;;;;;;19.77;34.24;97361.69;4775178;29;20169;-78
2023/06/04 06:43:24;;;;;;;1.55;1.00;;;;;;;19.97;33.87;97355.94;4775904;29;20300;-78
2023/06/04 06:45:50;;;;;;;1.27;0.68;;;;;;;19.67;34.15;97361.91;4758878;29;20204;-78
2023/06/04 06:48:16;;;;;;;1.98;0.75;;;;;;;19.83;34.03;97371.06;4758793;29;20480;-78
2023/06/04 06:50:41;;;;;;;3.10;0.95;;;;;;;19.64;34.01;97366.69;4775356;29;20260;-79
2023/06/04 06:53:07;;;;;;;2.25;0.70;;;;;;;19.85;34.24;97371.56;4773081;29;20297;-79
2023/06/04 06:55:32;;;;;;;1.70;1.00;;;;;;;19.67;33.52;97372.47;4754799;29;20542;-79
2023/06/04 06:57:58;;;;;;;2.03;0.98;;;;;;;19.49;34.32;97374.97;4741491;29;20443;-78
2023/06/04 07:00:23;;;;;;;1.45;0.80;;;;;;;19.92;34.16;97374.56;4790267;29;20623;-79
2023/06/04 07:02:49;;;;;;;2.03;0.75;;;;;;;19.58;34.43;97373.16;4742293;29;20318;-78
2023/06/04 07:05:16;;;;;;;1.50;0.70;;;;;;;20.07;34.88;97368.13;4758981;29;20189;-80
2023/06/04 07:07:43;;;;;;;1.48;0.90;;;;;;;20.30;33.73;97370.75;4761500;29;20258;-79
2023/06/04 07:10:09;;;;;;;2.80;1.25;;;;;;;20.28;34.06;97373.69;4759456;29;20335;-79
2023/06/04 07:12:34;;;;;;;1.20;0.80;;;;;;;20.13;33.44;97377.50;4746601;29;20375;-78
2023/06/04 07:15:00;;;;;;;1.98;0.90;;;;;;;20.52;33.91;97375.22;4761902;29;20529;-78
2023/06/04 07:17:25;;;;;;;2.28;0.90;;;;;;;20.67;33.60;97377.50;4774149;29;20146;-77
2023/06/04 07:19:51;;;;;;;1.40;0.90;;;;;;;20.59;33.48;97372.91;4762917;29;20324;-80
2023/06/04 07:22:16;;;;;;;1.27;0.90;;;;;;;20.95;33.09;97374.66;4748795;29;20418;-78
2023/06/04 07:24:42;;;;;;;2.55;0.70;;;;;;;21.06;32.82;97383.06;4775520;29;20367;-78
2023/06/04 07:27:15;;;;;;;1.30;0.90;;;;;;;21.05;32.79;97369.06;4775794;29;20527;-78
2023/06/04 07:29:43;;;;;;;1.92;1.10;;;;;;;21.35;32.64;97377.22;4749768;29;20305;-80
2023/06/04 07:32:08;;;;;;;3.70;1.02;;;;;;;21.13;31.89;97378.91;4745089;29;20374;-79
2023/06/04 07:34:34;;;;;;;1.35;0.98;;;;;;;21.12;32.59;97377.34;4761297;29;20525;-78
2023/06/04 07:37:00;;;;;;;2.50;0.90;;;;;;;21.10;33.25;97382.16;4764588;29;20398;-79
2023/06/04 07:39:26;;;;;;;2.42;1.00;;;;;;;21.23;33.35;97383.16;4746091;29;20311;-78
2023/06/04 07:41:51;;;;;;;1.60;0.90;;;;;;;21.25;32.80;97382.81;4790771;29;20513;-79
2023/06/04 07:44:17;;;;;;;1.38;0.70;;;;;;;21.42;32.98;97377.56;4775093;29;20476;-78
2023/06/04 07:46:42;;;;;;;1.65;0.95;;;;;;;21.78;32.61;97383.66;4776737;29;20439;-78
2023/06/04 07:49:09;;;;;;;1.58;0.80;;;;;;;21.68;32.99;97385.56;4777588;29;20406;-78
2023/06/04 07:51:35;;;;;;;1.33;0.80;;;;;;;21.42;33.26;97377.56;4780439;29;20231;-78
2023/06/04 07:54:01;;;;;;;3.38;1.60;;;;;;;21.58;33.11;97387.75;4792447;29;20075;-78
2023/06/04 07:56:27;;;;;;;1.08;0.90;;;;;;;21.47;33.39;97380.09;4769223;29;20192;-79
2023/06/04 07:58:52;;;;;;;4.43;0.82;;;;;;;21.26;33.86;97377.22;4754442;29;20403;-78
2023/06/04 08:01:18;;;;;;;2.50;1.35;;;;;;;21.33;33.60;97384.69;4772336;29;20312;-79
2023/06/04 08:03:43;;;;;;;2.13;1.30;;;;;;;21.39;33.37;97382.69;4779772;29;20447;-81
2023/06/04 08:06:10;;;;;;;2.33;1.10;;;;;;;21.26;33.36;97384.38;4777391;29;20355;-78
2023/06/04 08:08:36;;;;;;;1.73;1.00;;;;;;;21.71;34.05;97378.84;4778474;29;20451;-78
2023/06/04 08:11:02;;;;;;;2.65;1.10;;;;;;;22.05;33.35;97382.56;4777376;29;20707;-78
2023/06/04 08:13:28;;;;;;;1.45;0.98;;;;;;;22.33;33.30;97382.22;4773525;29;20143;-79
2023/06/04 08:15:53;;;;;;;1.38;1.10;;;;;;;22.77;32.55;97374.91;4773489;29;20418;-77
2023/06/04 08:18:19;;;;;;;1.30;0.75;;;;;;;22.97;31.78;97379.50;4762534;29;20321;-78
2023/06/04 08:20:44;;;;;;;2.20;1.20;;;;;;;23.23;32.10;97378.63;4765100;29;20057;-79
2023/06/04 08:23:10;;;;;;;1.55;0.80;;;;;;;23.28;31.00;97389.06;4774315;29;20037;-78
2023/06/04 08:25:36;;;;;;;1.80;0.80;;;;;;;23.55;31.10;97379.81;4748293;29;20193;-79
2023/06/04 08:28:04;;;;;;;2.17;1.50;;;;;;;23.55;30.22;97381.69;4745877;29;20490;-79
2023/06/04 08:30:35;;;;;;;1.80;1.00;;;;;;;23.81;30.26;97378.06;4751890;29;20396;-79
2023/06/04 08:33:01;;;;;;;1.75;1.00;;;;;;;23.72;30.82;97386.09;4770967;29;20223;-79
2023/06/04 08:35:27;;;;;;;2.72;1.00;;;;;;;23.68;30.76;97379.88;4760994;29;20299;-78
2023/06/04 08:37:52;;;;;;;2.05;1.00;;;;;;;24.06;30.23;97386.91;4779349;29;20521;-78
2023/06/04 08:40:18;;;;;;;1.08;0.90;;;;;;;24.28;31.02;97385.78;4763050;29;20354;-79
2023/06/04 08:42:44;;;;;;;1.15;1.00;;;;;;;24.43;29.99;97395.00;4778089;29;20200;-79
2023/06/04 08:45:15;;;;;;;1.38;1.08;;;;;;;24.74;30.62;97396.44;4748483;29;20173;-79
2023/06/04 08:47:44;;;;;;;1.52;1.40;;;;;;;24.75;29.27;97398.75;4761518;29;20260;-80
2023/06/04 08:50:10;;;;;;;4.97;1.92;;;;;;;24.67;28.96;97396.97;4764001;29;20211;-79
2023/06/04 08:52:38;;;;;;;3.97;1.20;;;;;;;24.99;29.30;97392.66;4779303;29;20157;-79
2023/06/04 08:55:06;;;;;;;2.05;1.30;;;;;;;24.93;28.04;97399.31;4792567;29;20340;-79
2023/06/04 08:57:32;;;;;;;1.25;1.08;;;;;;;24.86;28.88;97404.41;4763535;29;20317;-80
2023/06/04 08:59:57;;;;;;;1.38;1.08;;;;;;;25.16;28.14;97402.31;4792180;29;20632;-81
2023/06/04 09:02:23;;;;;;;1.40;1.20;;;;;;;25.16;28.05;97409.53;4748354;29;20292;-78
2023/06/04 09:04:49;;;;;;;2.05;1.40;;;;;;;25.23;28.64;97399.09;4744883;29;20371;-78
2023/06/04 09:07:16;;;;;;;1.55;1.40;;;;;;;25.33;28.03;97400.56;4775089;29;20193;-79
2023/06/04 09:09:47;;;;;;;2.10;1.08;;;;;;;25.48;28.16;97402.53;4764191;29;20192;-80
2023/06/04 09:12:18;;;;;;;2.53;1.23;;;;;;;25.49;27.78;97409.41;4776249;29;20212;-79
2023/06/04 09:14:44;;;;;;;1.98;1.60;;;;;;;25.57;28.69;97413.84;4763483;29;20512;-80
2023/06/04 09:17:09;;;;;;;1.45;1.35;;;;;;;25.89;27.26;97405.97;4747430;29;20449;-80
2023/06/04 09:19:35;;;;;;;2.20;1.50;;;;;;;26.16;28.04;97411.66;4775471;29;20196;-79
2023/06/04 09:22:02;;;;;;;2.58;1.30;;;;;;;26.33;26.63;97406.00;4756680;29;20034;-79
2023/06/04 09:24:52;;;;;;;1.73;1.33;;;;;;;26.07;27.43;97395.81;4761326;29;20212;-79
2023/06/04 09:27:22;;;;;;;1.88;1.33;;;;;;;25.94;26.05;97408.44;4769562;29;20452;-78
2023/06/04 09:30:07;;;;;;;1.55;1.45;;;;;;;26.56;26.68;97396.66;4774714;29;20260;-79
2023/06/04 09:32:32;;;;;;;;;;;;;;;26.62;26.22;97401.41;4762762;29;20400;-79
2023/06/04 09:35:11;;;;;;;2.25;1.48;;;;;;;26.46;26.51;97403.25;4762725;29;20347;-79
2023/06/04 09:37:37;;;;;;;1.33;1.23;;;;;;;26.53;25.96;97398.13;4777108;29;20381;-79
2023/06/04 09:40:05;;;;;;;1.50;1.40;;;;;;;26.46;25.97;97395.25;4777026;29;20350;-79
2023/06/04 09:42:41;;;;;;;2.97;1.52;;;;;;;26.87;25.50;97398.56;4776463;29;20195;-78
2023/06/04 09:45:08;;;;;;;2.17;1.13;;;;;;;26.86;25.78;97391.69;4758409;29;20204;-80
2023/06/04 09:47:43;;;;;;;2.80;1.55;;;;;;;26.55;25.42;97395.88;4746643;29;20366;-79
2023/06/04 09:50:12;;;;;;;2.08;1.48;;;;;;;26.51;26.19;97387.00;4745545;29;20280;-80
2023/06/04 09:52:39;;;;;;;1.30;1.13;;;;;;;26.61;25.87;97389.16;4744498;29;20365;-78
2023/06/04 09:55:25;;;;;;;2.17;1.25;;;;;;;26.82;25.85;97391.59;4770104;29;20188;-79
2023/06/04 09:57:52;;;;;;;2.28;1.23;;;;;;;26.99;24.88;97393.16;4774016;29;20213;-79
2023/06/04 10:00:22;;;;;;;3.60;1.25;;;;;;;27.27;25.26;97389.56;4775829;29;20332;-80
2023/06/04 10:02:48;;;;;;;2.20;1.33;;;;;;;27.39;25.27;97396.72;4777737;29;20404;-80
2023/06/04 10:05:14;;;;;;;3.13;1.40;;;;;;;27.58;23.43;97390.59;4748199;29;20284;-79
2023/06/04 10:07:44;;;;;;;2.63;1.55;;;;;;;28.01;24.01;97389.56;4763061;29;20402;-79
2023/06/04 10:10:14;;;;;;;2.40;1.25;;;;;;;27.99;22.96;97391.06;4776105;29;20177;-79
2023/06/04 10:12:41;;;;;;;1.50;1.38;;;;;;;27.91;23.95;97394.69;4747070;29;20196;-79
2023/06/04 10:15:11;;;;;;;1.50;1.40;;;;;;;28.34;23.21;97393.63;4758270;29;20255;-80
2023/06/04 10:17:37;;;;;;;3.42;1.70;;;;;;;27.90;22.84;97375.19;4776051;29;20446;-82
2023/06/04 10:20:05;;;;;;;2.13;1.50;;;;;;;27.56;23.04;97380.25;4747340;29;20382;-81
2023/06/04 10:22:31;;;;;;;2.45;1.38;;;;;;;28.33;24.14;97384.03;4773997;29;20332;-79
2023/06/04 10:24:58;;;;;;;1.40;1.30;;;;;;;28.69;23.79;97378.53;4773583;29;20362;-79
2023/06/04 10:27:24;;;;;;;2.00;1.80;;;;;;;28.71;21.70;97385.06;4762332;29;20264;-79
2023/06/04 10:29:50;;;;;;;3.22;1.40;;;;;;;28.48;22.64;97386.94;4747372;29;20331;-80
2023/06/04 10:32:16;;;;;;;4.32;1.73;;;;;;;28.19;22.42;97392.59;4761475;29;20191;-81
2023/06/04 10:34:42;;;;;;;2.53;1.77;;;;;;;28.13;21.41;97385.97;4761663;29;20033;-79
2023/06/04 10:37:20;;;;;;;4.07;2.00;;;;;;;27.88;21.86;97384.69;4777673;29;20249;-80
2023/06/04 10:39:51;;;;;;;2.28;1.42;;;;;;;28.31;24.32;97386.28;4777060;29;20375;-80
2023/06/04 10:42:18;;;;;;;2.28;1.25;;;;;;;28.48;22.08;97394.97;4769392;29;20587;-79
2023/06/04 10:44:46;;;;;;;1.70;1.08;;;;;;;28.63;22.33;97370.00;4776494;29;20176;-80
2023/06/04 10:47:19;;;;;;;1.65;1.55;;;;;;;29.42;22.75;97378.44;4768415;29;20509;-80
2023/06/04 10:49:44;;;;;;;2.35;1.50;;;;;;;29.55;22.81;97384.34;4757842;29;20297;-80
2023/06/04 10:52:11;;;;;;;3.85;1.38;;;;;;;29.03;20.95;97392.03;4771448;29;20113;-80
2023/06/04 10:54:36;;;;;;;1.75;1.40;;;;;;;29.04;20.62;97388.22;4759254;29;20217;-80
2023/06/04 10:57:13;;;;;;;2.08;1.60;;;;;;;28.69;21.07;97384.66;4777872;29;20227;-80
2023/06/04 10:59:39;;;;;;;2.65;1.52;;;;;;;27.81;21.94;97391.47;4748055;29;20203;-80
2023/06/04 11:02:08;;;;;;;2.60;1.77;;;;;;;28.00;22.22;97393.38;4777472;29;20025;-81
2023/06/04 11:04:36;;;;;;;2.20;1.17;;;;;;;27.86;22.17;97392.31;4773674;29;20217;-79
2023/06/04 11:07:09;;;;;;;2.88;1.40;;;;;;;28.20;22.53;97382.63;4774593;29;20489;-80
2023/06/04 11:09:56;;;;;;;3.00;1.42;;;;;;;28.24;22.62;97383.50;4775797;29;20187;-80
2023/06/04 11:12:21;;;;;;;2.75;1.80;;;;;;;27.83;21.42;97394.56;4791974;29;20061;-78
2023/06/04 11:14:57;;;;;;;2.05;1.85;;;;;;;28.29;21.30;97391.22;4762079;29;20588;-78
2023/06/04 11:17:23;;;;;;;4.57;2.28;;;;;;;27.98;22.17;97394.84;4778028;29;20056;-80
2023/06/04 11:19:48;;;;;;;1.92;1.75;;;;;;;27.94;22.07;97394.03;4787127;29;20275;-80
2023/06/04 11:22:14;;;;;;;4.38;1.80;;;;;;;27.84;21.84;97396.09;4770373;29;20431;-79
2023/06/04 11:24:40;;;;;;;3.00;1.98;;;;;;;27.56;22.62;97400.88;4775947;29;20584;-78
2023/06/04 11:27:06;;;;;;;5.15;1.85;;;;;;;27.32;22.15;97385.88;4743934;29;20192;-79
2023/06/04 11:29:32;;;;;;;1.95;1.67;;;;;;;27.41;23.05;97383.75;4751167;29;20200;-79
2023/06/04 11:31:57;;;;;;;2.42;1.73;;;;;;;27.09;23.37;97405.19;4753511;29;20196;-77